Time;durP1;ratioP1;P1;durP2;ratioP2;P2;SDS_P1;SDS_P2;PMS_P1;PMS_P2;Temp;Humidity;BMP_temperature;BMP_pressure;BME280_temperature;BME280_humidity;BME280_pressure;Samples;Min_cycle;Max_cycle;Signal;HPM_P1;HPM_P2
2021/04/10 00:02:07;;;;;;;11.33;9.27;;;12.00;67.30;;;;;;5074738;28;20429;-49
2021/04/10 00:04:33;;;;;;;13.53;9.80;;;11.90;67.00;;;;;;5074443;28;20454;-49
2021/04/10 00:06:59;;;;;;;10.73;8.80;;;12.10;67.40;;;;;;5074887;28;20477;-49
2021/04/10 00:09:25;;;;;;;11.20;8.17;;;11.80;67.30;;;;;;5074978;28;20832;-49
2021/04/10 00:11:52;;;;;;;9.73;8.63;;;11.70;67.40;;;;;;5075027;28;20440;-49
2021/04/10 00:14:19;;;;;;;13.63;11.53;;;11.60;67.40;;;;;;5075043;28;20444;-50
2021/04/10 00:16:47;;;;;;;12.20;9.13;;;11.70;67.90;;;;;;5074786;28;20455;-49
2021/04/10 00:19:13;;;;;;;12.97;8.90;;;11.50;67.70;;;;;;5075097;28;20432;-49
2021/04/10 00:21:40;;;;;;;11.83;9.57;;;11.50;67.40;;;;;;5074418;28;20812;-49
2021/04/10 00:24:08;;;;;;;16.50;9.80;;;11.40;67.90;;;;;;5074142;28;20436;-49
2021/04/10 00:26:34;;;;;;;11.43;10.00;;;11.40;68.10;;;;;;5073022;28;20514;-50
2021/04/10 00:29:00;;;;;;;9.60;8.60;;;10.90;68.00;;;;;;5072873;28;20454;-50
2021/04/10 00:31:27;;;;;;;12.30;9.00;;;11.20;68.80;;;;;;5074717;28;20429;-48
2021/04/10 00:33:54;;;;;;;16.07;9.57;;;11.10;68.70;;;;;;5074461;28;20459;-49
2021/04/10 00:36:20;;;;;;;8.93;7.90;;;11.00;69.10;;;;;;5074402;28;20470;-49
2021/04/10 00:38:46;;;;;;;12.83;8.97;;;11.00;69.40;;;;;;5074242;28;20850;-49
2021/04/10 00:41:13;;;;;;;12.00;9.20;;;11.10;70.40;;;;;;5074003;28;20997;-49
2021/04/10 00:43:39;;;;;;;12.10;9.10;;;10.80;70.70;;;;;;5073595;28;20437;-49
2021/04/10 00:46:06;;;;;;;12.33;9.20;;;11.00;71.00;;;;;;5073660;28;20462;-49
2021/04/10 00:48:34;;;;;;;10.30;9.20;;;10.70;71.20;;;;;;5073877;28;20517;-49
2021/04/10 00:51:00;;;;;;;10.57;9.47;;;10.90;71.60;;;;;;5073949;28;20959;-49
2021/04/10 00:53:28;;;;;;;10.83;8.90;;;10.80;71.40;;;;;;5073480;28;20935;-49
2021/04/10 00:55:56;;;;;;;11.43;9.17;;;10.70;72.30;;;;;;5072442;28;20688;-49
2021/04/10 00:58:23;;;;;;;12.87;11.33;;;10.70;72.60;;;;;;5072352;28;20541;-49
2021/04/10 01:00:49;;;;;;;10.10;9.10;;;10.70;72.50;;;;;;5073682;28;20442;-49
2021/04/10 01:03:16;;;;;;;12.47;9.07;;;10.70;73.10;;;;;;5071970;28;20445;-49
2021/04/10 01:05:43;;;;;;;11.53;8.70;;;10.50;73.20;;;;;;5072239;28;20553;-49
2021/04/10 01:08:10;;;;;;;13.20;9.17;;;10.60;73.40;;;;;;5071411;28;20589;-48
2021/04/10 01:10:36;;;;;;;9.90;8.90;;;10.50;73.50;;;;;;5073482;28;20520;-48
2021/04/10 01:13:12;;;;;;;9.90;8.90;;;9.80;75.80;;;;;;5073372;28;20434;-48
2021/04/10 01:15:46;;;;;;;13.07;9.93;;;10.20;76.10;;;;;;5072041;28;20484;-49
2021/04/10 01:18:17;;;;;;;9.27;8.37;;;10.20;76.70;;;;;;5073752;28;20915;-49
2021/04/10 01:21:04;;;;;;;9.30;8.40;;;10.00;76.80;;;;;;5072220;28;20454;-49
2021/04/10 01:24:23;;;;;;;10.30;8.50;;;9.90;80.10;;;;;;5073056;28;20418;-48
2021/04/10 01:27:12;;;;;;;11.17;9.07;;;9.90;81.00;;;;;;5071758;28;20462;-47
2021/04/10 01:29:44;;;;;;;10.23;8.83;;;9.80;80.10;;;;;;5073301;28;20502;-48
2021/04/10 01:32:13;;;;;;;13.23;9.73;;;9.70;81.80;;;;;;5073866;28;20923;-47
2021/04/10 01:34:43;;;;;;;10.00;9.10;;;9.30;81.40;;;;;;5072153;28;20545;-48
2021/04/10 01:37:15;;;;;;;9.57;8.60;;;9.80;82.40;;;;;;5072131;28;20560;-49
2021/04/10 01:39:42;;;;;;;12.47;9.83;;;9.60;83.00;;;;;;5072142;28;20476;-48
2021/04/10 01:42:10;;;;;;;11.43;9.10;;;9.70;83.40;;;;;;5072732;28;20434;-48
2021/04/10 01:44:37;;;;;;;9.13;7.57;;;9.50;83.50;;;;;;5073393;28;20449;-48
2021/04/10 01:47:08;;;;;;;10.10;9.03;;;9.30;84.10;;;;;;5072734;28;20526;-48
2021/04/10 01:49:35;;;;;;;11.40;8.63;;;9.50;84.00;;;;;;5074203;28;20428;-48
2021/04/10 01:52:03;;;;;;;13.80;8.70;;;9.50;84.40;;;;;;5073135;28;20462;-49
2021/04/10 01:54:32;;;;;;;9.97;8.43;;;9.80;85.30;;;;;;5073887;28;20434;-48
2021/04/10 01:57:01;;;;;;;9.30;8.40;;;9.00;84.20;;;;;;5072456;28;20478;-48
2021/04/10 01:59:30;;;;;;;10.23;8.53;;;9.50;84.30;;;;;;5072206;28;20477;-48
2021/04/10 02:01:59;;;;;;;11.33;8.50;;;9.50;86.10;;;;;;5072288;28;20453;-49
2021/04/10 02:04:45;;;;;;;8.73;7.83;;;9.40;85.20;;;;;;5075942;28;20877;-48
2021/04/10 02:07:13;;;;;;;9.80;8.80;;;9.60;85.60;;;;;;5074546;28;20521;-48
2021/04/10 02:09:46;;;;;;;10.43;8.67;;;9.50;85.60;;;;;;5074077;28;20443;-48
2021/04/10 02:12:32;;;;;;;8.87;7.50;;;9.80;86.20;;;;;;5076230;28;20777;-48
2021/04/10 02:15:11;;;;;;;11.77;7.63;;;9.30;85.80;;;;;;5073809;28;20539;-48
2021/04/10 02:17:38;;;;;;;9.60;7.90;;;9.70;86.00;;;;;;5073298;28;20446;-48
2021/04/10 02:20:13;;;;;;;10.40;7.20;;;9.80;85.80;;;;;;5072770;28;20452;-48
2021/04/10 02:22:43;;;;;;;12.57;8.33;;;9.60;86.30;;;;;;5072429;28;20441;-48
2021/04/10 02:25:13;;;;;;;8.83;7.97;;;9.70;86.50;;;;;;5071334;28;20457;-49
2021/04/10 02:27:40;;;;;;;9.80;7.13;;;9.70;86.50;;;;;;5072281;28;20430;-48
2021/04/10 02:30:08;;;;;;;7.40;6.33;;;9.90;86.60;;;;;;5070793;28;20495;-48
2021/04/10 02:32:39;;;;;;;8.77;6.97;;;9.80;86.40;;;;;;5070493;28;20456;-48
2021/04/10 02:35:15;;;;;;;8.10;7.17;;;9.70;87.40;;;;;;5070481;28;20530;-48
2021/04/10 02:37:43;;;;;;;8.17;6.50;;;9.60;87.30;;;;;;5072135;28;20866;-49
2021/04/10 02:40:17;;;;;;;7.33;6.63;;;9.70;88.20;;;;;;5070995;28;20462;-48
2021/04/10 02:42:47;;;;;;;6.37;5.77;;;9.80;87.80;;;;;;5070458;28;20813;-48
2021/04/10 02:45:24;;;;;;;7.00;6.07;;;9.70;88.00;;;;;;5071805;28;20556;-48
2021/04/10 02:47:53;;;;;;;9.53;6.90;;;9.70;88.70;;;;;;5071856;28;20433;-48
2021/04/10 02:50:22;;;;;;;8.30;7.27;;;9.50;88.60;;;;;;5070385;28;20885;-49
2021/04/10 02:52:53;;;;;;;8.53;6.37;;;9.70;89.70;;;;;;5070586;28;20461;-49
2021/04/10 02:55:28;;;;;;;8.73;7.27;;;9.80;89.20;;;;;;5071276;28;21009;-48
2021/04/10 02:57:59;;;;;;;8.50;7.23;;;9.80;89.70;;;;;;5070839;28;20481;-47
2021/04/10 03:00:26;;;;;;;9.33;6.80;;;9.50;90.10;;;;;;5070523;28;20535;-48
2021/04/10 03:02:55;;;;;;;8.03;7.20;;;9.70;90.10;;;;;;5070085;28;20449;-47
2021/04/10 03:05:23;;;;;;;9.97;7.80;;;9.50;90.10;;;;;;5070357;28;20460;-49
2021/04/10 03:07:52;;;;;;;8.03;7.20;;;9.80;90.70;;;;;;5070255;28;20934;-48
2021/04/10 03:10:23;;;;;;;14.60;9.03;;;9.60;90.70;;;;;;5070211;28;20446;-48
2021/04/10 03:12:53;;;;;;;8.43;7.57;;;9.60;90.80;;;;;;5071315;28;20774;-48
2021/04/10 03:15:22;;;;;;;7.73;6.60;;;9.50;90.80;;;;;;5070218;28;20538;-48
2021/04/10 03:17:50;;;;;;;7.93;7.13;;;9.60;91.10;;;;;;5071612;28;20426;-48
2021/04/10 03:20:19;;;;;;;10.30;6.60;;;9.50;91.00;;;;;;5071200;28;20519;-47
2021/04/10 03:22:49;;;;;;;7.63;6.47;;;9.40;91.20;;;;;;5071603;28;20586;-48
2021/04/10 03:25:21;;;;;;;11.93;8.00;;;9.70;91.30;;;;;;5070706;28;20984;-47
2021/04/10 03:27:50;;;;;;;10.63;7.30;;;9.60;91.30;;;;;;5071551;28;20441;-47
2021/04/10 03:30:18;;;;;;;8.80;7.90;;;9.70;91.70;;;;;;5071090;28;20457;-47
2021/04/10 03:32:50;;;;;;;7.87;6.43;;;9.80;92.00;;;;;;5075722;28;20430;-47
2021/04/10 03:35:17;;;;;;;9.53;6.57;;;9.70;91.90;;;;;;5075815;28;20493;-47
2021/04/10 03:37:47;;;;;;;8.83;7.13;;;9.70;92.20;;;;;;5075800;28;20445;-47
2021/04/10 03:40:18;;;;;;;7.63;6.63;;;9.40;92.30;;;;;;5076722;28;20431;-49
2021/04/10 03:42:48;;;;;;;8.43;6.93;;;9.60;92.30;;;;;;5074454;28;20819;-48
2021/04/10 03:45:21;;;;;;;10.57;6.93;;;9.50;92.30;;;;;;5074141;28;20454;-47
2021/04/10 03:47:50;;;;;;;8.97;7.00;;;9.20;92.20;;;;;;5074581;28;20452;-48
2021/04/10 03:50:17;;;;;;;12.60;7.67;;;9.70;93.00;;;;;;5075565;28;20441;-48
2021/04/10 03:52:47;;;;;;;8.57;7.67;;;9.00;92.60;;;;;;5073965;28;20437;-47
2021/04/10 03:55:14;;;;;;;11.47;7.10;;;9.80;93.20;;;;;;5074003;28;21001;-48
2021/04/10 03:57:42;;;;;;;9.00;7.30;;;9.50;93.40;;;;;;5074082;28;20863;-48
2021/04/10 04:00:09;;;;;;;8.27;7.33;;;9.60;93.70;;;;;;5073913;28;20454;-48
2021/04/10 04:02:42;;;;;;;7.97;6.10;;;9.70;94.20;;;;;;5075252;28;20425;-48
2021/04/10 04:05:10;;;;;;;8.27;7.37;;;9.50;94.50;;;;;;5073379;28;20448;-48
2021/04/10 04:07:36;;;;;;;7.87;6.70;;;9.50;94.60;;;;;;5074650;28;20949;-48
2021/04/10 04:10:05;;;;;;;8.30;6.83;;;9.60;94.60;;;;;;5074966;28;20795;-48
2021/04/10 04:12:31;;;;;;;9.50;7.17;;;9.60;95.00;;;;;;5074523;28;20487;-48
2021/04/10 04:14:57;;;;;;;8.43;7.40;;;9.60;95.50;;;;;;5074584;28;20430;-48
2021/04/10 04:17:24;;;;;;;8.00;7.17;;;10.10;95.50;;;;;;5074627;28;20516;-48
2021/04/10 04:19:50;;;;;;;10.03;7.67;;;9.70;96.10;;;;;;5074498;28;20468;-48
2021/04/10 04:22:16;;;;;;;8.70;7.10;;;9.60;96.10;;;;;;5074211;28;20890;-49
2021/04/10 04:24:42;;;;;;;8.03;7.23;;;9.40;96.70;;;;;;5074222;28;20520;-48
2021/04/10 04:27:10;;;;;;;7.80;6.60;;;9.50;97.80;;;;;;5074246;28;20812;-48
2021/04/10 04:29:36;;;;;;;8.20;6.97;;;9.70;97.80;;;;;;5074282;28;20511;-48
2021/04/10 04:32:04;;;;;;;10.50;8.10;;;10.00;97.90;;;;;;5073183;28;20453;-48
2021/04/10 04:34:30;;;;;;;7.83;7.03;;;9.50;98.60;;;;;;5074065;28;20441;-48
2021/04/10 04:36:56;;;;;;;12.73;7.03;;;9.70;99.00;;;;;;5074032;28;20970;-48
2021/04/10 04:39:22;;;;;;;7.90;6.97;;;9.40;99.70;;;;;;5074080;28;20430;-49
2021/04/10 04:41:49;;;;;;;9.07;7.17;;;9.70;99.90;;;;;;5074259;28;20529;-48
2021/04/10 04:44:16;;;;;;;10.23;8.13;;;9.60;99.90;;;;;;5073402;28;20983;-47
2021/04/10 04:46:42;;;;;;;10.80;8.70;;;9.60;99.90;;;;;;5075773;28;21001;-47
2021/04/10 04:49:09;;;;;;;8.27;7.20;;;9.60;99.90;;;;;;5074563;28;20434;-47
2021/04/10 04:51:35;;;;;;;8.57;6.67;;;9.30;99.90;;;;;;5073885;28;20528;-47
2021/04/10 04:54:02;;;;;;;13.73;8.83;;;9.40;99.90;;;;;;5073362;28;20526;-47
2021/04/10 04:56:28;;;;;;;11.53;7.70;;;9.40;99.90;;;;;;5073507;28;20477;-47
2021/04/10 04:58:54;;;;;;;10.40;7.50;;;9.50;99.90;;;;;;5073724;28;20434;-47
2021/04/10 05:01:21;;;;;;;12.03;8.00;;;9.30;99.90;;;;;;5073704;28;20521;-47
2021/04/10 05:03:49;;;;;;;10.83;6.47;;;9.50;99.90;;;;;;5073174;28;20429;-47
2021/04/10 05:06:15;;;;;;;6.80;5.00;;;9.50;99.90;;;;;;5073524;28;20453;-47
2021/04/10 05:08:41;;;;;;;8.70;5.67;;;9.80;99.90;;;;;;5072229;28;20442;-47
2021/04/10 05:11:08;;;;;;;8.20;6.03;;;9.50;99.90;;;;;;5073684;28;20441;-47
2021/04/10 05:13:34;;;;;;;7.23;5.60;;;9.70;99.90;;;;;;5073276;28;20460;-47
2021/04/10 05:16:00;;;;;;;6.90;6.20;;;9.60;99.90;;;;;;5072086;28;20485;-46
2021/04/10 05:18:27;;;;;;;9.10;6.20;;;9.50;99.90;;;;;;5073211;28;20421;-48
2021/04/10 05:20:53;;;;;;;7.00;5.43;;;9.70;99.90;;;;;;5073066;28;20433;-47
2021/04/10 05:23:21;;;;;;;9.30;6.23;;;9.50;99.90;;;;;;5072769;28;20524;-48
2021/04/10 05:25:48;;;;;;;6.20;5.57;;;9.40;99.90;;;;;;5073216;28;20549;-47
2021/04/10 05:28:14;;;;;;;8.83;5.30;;;9.70;99.90;;;;;;5073077;28;20946;-47
2021/04/10 05:30:40;;;;;;;6.47;5.40;;;9.60;99.90;;;;;;5072789;28;20846;-48
2021/04/10 05:33:06;;;;;;;6.00;5.37;;;9.60;99.90;;;;;;5073023;28;20438;-48
2021/04/10 05:35:34;;;;;;;6.37;5.37;;;9.80;99.90;;;;;;5072856;28;20478;-49
2021/04/10 05:38:00;;;;;;;7.57;6.10;;;9.60;99.90;;;;;;5072727;28;20457;-48
2021/04/10 05:40:26;;;;;;;7.83;5.30;;;9.70;99.90;;;;;;5072794;28;20437;-49
2021/04/10 05:42:52;;;;;;;10.23;4.87;;;9.70;99.90;;;;;;5072196;28;20522;-48
2021/04/10 05:45:19;;;;;;;9.37;5.93;;;9.30;99.90;;;;;;5072571;28;20979;-48
2021/04/10 05:47:45;;;;;;;8.70;4.97;;;9.30;99.90;;;;;;5072870;28;20405;-48
2021/04/10 05:50:12;;;;;;;7.40;4.70;;;9.30;99.90;;;;;;5072565;28;20425;-48
2021/04/10 05:52:39;;;;;;;6.90;5.80;;;9.10;99.90;;;;;;5070834;28;20444;-48
2021/04/10 05:55:07;;;;;;;8.63;5.27;;;9.00;99.90;;;;;;5072049;28;20430;-48
2021/04/10 05:57:33;;;;;;;9.13;6.23;;;9.00;99.90;;;;;;5072375;28;20437;-48
2021/04/10 05:59:59;;;;;;;9.00;6.00;;;9.20;99.90;;;;;;5072322;28;20438;-48
2021/04/10 06:02:26;;;;;;;10.93;6.20;;;9.30;99.90;;;;;;5070691;28;20532;-48
2021/04/10 06:04:52;;;;;;;9.77;8.20;;;9.50;99.90;;;;;;5072419;28;20438;-48
2021/04/10 06:07:19;;;;;;;9.40;6.00;;;9.30;99.90;;;;;;5072375;28;20544;-48
2021/04/10 06:09:46;;;;;;;8.23;6.40;;;9.50;99.90;;;;;;5072280;28;20925;-47
2021/04/10 06:12:13;;;;;;;8.87;6.50;;;9.60;99.90;;;;;;5070803;28;20497;-48
2021/04/10 06:14:39;;;;;;;8.37;6.93;;;9.30;99.90;;;;;;5073510;28;20918;-48
2021/04/10 06:17:05;;;;;;;7.00;6.30;;;9.30;99.90;;;;;;5072494;28;20869;-49
2021/04/10 06:19:31;;;;;;;13.17;6.80;;;9.20;99.90;;;;;;5072158;28;20466;-49
2021/04/10 06:21:58;;;;;;;7.57;6.30;;;9.30;99.90;;;;;;5072070;28;20466;-49
2021/04/10 06:24:24;;;;;;;11.10;6.43;;;9.20;99.90;;;;;;5071826;28;20519;-49
2021/04/10 06:26:51;;;;;;;8.43;5.80;;;9.40;99.90;;;;;;5071813;28;20548;-49
2021/04/10 06:29:17;;;;;;;7.77;6.97;;;8.90;99.90;;;;;;5070905;28;20457;-49
2021/04/10 06:31:44;;;;;;;14.50;7.00;;;9.60;99.90;;;;;;5071987;28;20544;-49
2021/04/10 06:34:11;;;;;;;8.53;6.37;;;9.20;99.90;;;;;;5071558;28;20567;-48
2021/04/10 06:36:37;;;;;;;7.87;6.17;;;9.30;99.90;;;;;;5071705;28;20485;-48
2021/04/10 06:39:04;;;;;;;7.63;6.50;;;9.60;99.90;;;;;;5071956;28;20436;-48
2021/04/10 06:41:30;;;;;;;8.03;6.53;;;9.30;99.90;;;;;;5072134;28;20442;-48
2021/04/10 06:43:58;;;;;;;9.23;7.00;;;9.00;99.90;;;;;;5071412;28;20433;-48
2021/04/10 06:46:27;;;;;;;6.87;5.73;;;9.40;99.90;;;;;;5071542;28;20462;-48
2021/04/10 06:48:57;;;;;;;8.80;6.43;;;9.50;99.90;;;;;;5071734;28;20475;-48
2021/04/10 06:51:24;;;;;;;10.40;6.87;;;9.40;99.90;;;;;;5071716;28;20442;-49
2021/04/10 06:53:52;;;;;;;9.27;7.40;;;9.30;99.90;;;;;;5071445;28;20922;-49
2021/04/10 06:56:20;;;;;;;9.77;8.20;;;9.20;99.90;;;;;;5073102;28;20481;-47
2021/04/10 06:58:54;;;;;;;10.20;9.07;;;9.00;99.90;;;;;;5073275;28;20429;-49
2021/04/10 07:01:21;;;;;;;13.50;9.57;;;9.10;99.90;;;;;;5073209;28;20447;-47
2021/04/10 07:03:51;;;;;;;14.27;10.43;;;9.10;99.90;;;;;;5071288;28;20483;-49
2021/04/10 07:06:18;;;;;;;13.43;11.70;;;8.90;99.90;;;;;;5072835;28;20453;-48
2021/04/10 07:08:44;;;;;;;16.13;11.13;;;8.90;99.90;;;;;;5075833;28;20426;-48
2021/04/10 07:11:12;;;;;;;13.37;9.23;;;8.60;99.90;;;;;;5075466;28;20445;-48
2021/04/10 07:13:39;;;;;;;11.93;10.63;;;8.30;99.90;;;;;;5073694;28;20448;-49
2021/04/10 07:16:06;;;;;;;14.30;11.30;;;8.40;99.90;;;;;;5075304;28;20973;-48
2021/04/10 07:18:33;;;;;;;11.93;10.70;;;8.60;99.90;;;;;;5075685;28;20882;-47
2021/04/10 07:21:17;;;;;;;11.80;9.60;;;8.50;99.90;;;;;;5076278;28;20733;-48
2021/04/10 07:23:45;;;;;;;13.30;10.10;;;8.80;99.90;;;;;;5076642;28;20506;-47
2021/04/10 07:26:12;;;;;;;12.10;9.77;;;8.20;99.90;;;;;;5075856;28;20457;-48
2021/04/10 07:28:38;;;;;;;13.77;8.63;;;8.50;99.90;;;;;;5075790;28;20425;-49
2021/04/10 07:31:06;;;;;;;13.20;9.13;;;8.60;99.90;;;;;;5075957;28;20430;-49
2021/04/10 07:33:35;;;;;;;13.27;9.20;;;8.10;99.90;;;;;;5076343;28;20429;-48
2021/04/10 07:36:03;;;;;;;11.07;9.10;;;8.70;99.90;;;;;;5074492;28;20848;-48
2021/04/10 07:38:31;;;;;;;14.83;9.40;;;8.60;99.90;;;;;;5076331;28;20452;-48
2021/04/10 07:40:58;;;;;;;10.50;8.63;;;8.60;99.90;;;;;;5076126;28;20996;-49
2021/04/10 07:43:26;;;;;;;10.10;8.53;;;8.70;99.90;;;;;;5075759;28;20436;-47
2021/04/10 07:46:11;;;;;;;13.30;9.13;;;8.80;99.90;;;;;;5075137;28;20536;-49
2021/04/10 07:48:39;;;;;;;14.67;9.50;;;8.80;99.90;;;;;;5076595;28;20433;-49
2021/04/10 07:51:14;;;;;;;12.50;9.33;;;8.80;99.90;;;;;;5075124;28;20453;-50
2021/04/10 07:53:41;;;;;;;11.03;9.43;;;8.40;99.90;;;;;;5074656;28;20444;-50
2021/04/10 07:56:08;;;;;;;9.97;8.33;;;8.90;99.90;;;;;;5074854;28;20473;-49
2021/04/10 07:58:36;;;;;;;13.27;10.00;;;8.60;99.90;;;;;;5075103;28;20433;-48
2021/04/10 08:01:04;;;;;;;10.50;8.07;;;8.80;99.90;;;;;;5073704;28;20460;-48
2021/04/10 08:03:32;;;;;;;15.67;8.93;;;8.80;99.90;;;;;;5074524;28;20440;-49
2021/04/10 08:06:20;;;;;;;13.20;9.50;;;8.80;99.90;;;;;;5074353;28;20470;-48
2021/04/10 08:08:48;;;;;;;17.70;9.40;;;8.90;99.90;;;;;;5074480;28;20449;-49
2021/04/10 08:11:15;;;;;;;11.73;8.20;;;8.70;99.90;;;;;;5074434;28;20437;-48
2021/04/10 08:13:53;;;;;;;11.73;8.40;;;8.70;99.90;;;;;;5074348;28;20433;-48
2021/04/10 08:16:20;;;;;;;12.10;8.60;;;8.90;99.90;;;;;;5074432;28;20858;-49
2021/04/10 08:18:47;;;;;;;10.10;7.50;;;9.00;99.90;;;;;;5074191;28;20464;-50
2021/04/10 08:21:14;;;;;;;13.77;8.90;;;9.10;99.90;;;;;;5074607;28;20451;-48
2021/04/10 08:23:41;;;;;;;11.67;7.83;;;9.30;99.90;;;;;;5074423;28;20536;-49
2021/04/10 08:26:08;;;;;;;11.67;7.30;;;9.60;99.90;;;;;;5076176;28;20486;-49
2021/04/10 08:28:35;;;;;;;11.37;7.47;;;9.20;99.90;;;;;;5075367;28;20461;-48
2021/04/10 08:31:02;;;;;;;10.70;6.50;;;9.60;99.90;;;;;;5075770;28;20478;-49
2021/04/10 08:33:29;;;;;;;8.90;5.87;;;9.50;99.90;;;;;;5075006;28;20430;-49
2021/04/10 08:35:57;;;;;;;9.97;5.90;;;9.80;99.90;;;;;;5073886;28;20526;-48
2021/04/10 08:38:28;;;;;;;11.60;6.80;;;9.80;99.90;;;;;;5074195;28;20438;-48
2021/04/10 08:40:57;;;;;;;13.97;6.47;;;9.80;99.90;;;;;;5074900;28;20437;-49
2021/04/10 08:43:25;;;;;;;13.87;6.20;;;10.00;99.90;;;;;;5073811;28;20459;-48
2021/04/10 08:45:54;;;;;;;13.00;5.97;;;10.10;99.90;;;;;;5072558;28;20481;-49
2021/04/10 08:48:22;;;;;;;11.57;7.10;;;10.20;99.90;;;;;;5074325;28;20425;-48
2021/04/10 08:50:51;;;;;;;8.53;6.20;;;10.40;99.90;;;;;;5073691;28;20472;-48
2021/04/10 08:53:22;;;;;;;8.70;6.23;;;10.50;99.90;;;;;;5073525;28;20440;-49
2021/04/10 08:55:50;;;;;;;9.10;5.97;;;10.60;99.90;;;;;;5073865;28;20539;-48
2021/04/10 08:58:35;;;;;;;15.30;5.90;;;10.80;99.90;;;;;;5074063;28;20441;-48
2021/04/10 09:01:03;;;;;;;10.50;6.70;;;10.70;99.90;;;;;;5073476;28;20927;-48
2021/04/10 09:03:52;;;;;;;12.37;6.07;;;10.50;99.90;;;;;;5073645;28;20952;-48
2021/04/10 09:06:49;;;;;;;13.20;6.50;;;10.40;99.90;;;;;;5073790;28;20472;-48
2021/04/10 09:09:31;;;;;;;8.23;5.47;;;10.30;99.90;;;;;;5073285;28;20743;-48
2021/04/10 09:12:25;;;;;;;7.90;5.30;;;10.80;99.90;;;;;;5070267;28;20743;-48
2021/04/10 09:14:52;;;;;;;11.13;5.10;;;10.90;99.90;;;;;;5055501;28;20514;-48
2021/04/10 09:17:19;;;;;;;14.33;5.70;;;10.70;99.90;;;;;;5073426;28;20513;-48
2021/04/10 09:19:46;;;;;;;10.27;5.30;;;10.80;99.90;;;;;;5072743;28;20503;-48
2021/04/10 09:22:19;;;;;;;8.67;5.30;;;11.00;99.90;;;;;;5071228;28;20462;-47
2021/04/10 09:24:47;;;;;;;12.90;5.23;;;11.00;99.90;;;;;;5072742;28;20491;-47
2021/04/10 09:27:19;;;;;;;9.13;5.00;;;10.80;99.90;;;;;;5053672;28;20459;-48
2021/04/10 09:29:53;;;;;;;7.13;4.77;;;11.00;99.90;;;;;;5052405;28;20442;-48
2021/04/10 09:32:34;;;;;;;7.70;4.03;;;11.00;99.90;;;;;;5052385;28;20438;-49
2021/04/10 09:35:03;;;;;;;4.43;3.70;;;11.10;99.90;;;;;;5053095;28;20431;-50
2021/04/10 09:38:02;;;;;;;7.10;4.50;;;11.30;99.90;;;;;;5052856;28;20482;-47
2021/04/10 09:40:50;;;;;;;12.40;5.53;;;11.00;99.90;;;;;;5051288;28;20923;-49
2021/04/10 09:43:21;;;;;;;6.80;5.00;;;11.20;99.90;;;;;;5052214;28;20488;-48
2021/04/10 09:45:50;;;;;;;8.00;4.50;;;11.60;99.90;;;;;;5051804;28;20501;-48
2021/04/10 09:48:27;;;;;;;7.20;4.00;;;10.70;99.90;;;;;;5052520;28;20846;-47
2021/04/10 09:51:13;;;;;;;7.40;5.00;;;11.10;99.90;;;;;;5053311;28;20426;-48
2021/04/10 09:53:39;;;;;;;8.30;5.37;;;11.20;99.90;;;;;;5054135;28;20537;-47
2021/04/10 09:56:12;;;;;;;7.60;4.33;;;11.10;99.90;;;;;;5054394;28;20466;-49
2021/04/10 09:58:52;;;;;;;6.20;4.57;;;11.20;99.90;;;;;;5053649;28;20430;-49
2021/04/10 10:01:25;;;;;;;7.20;5.10;;;11.30;99.90;;;;;;5052675;28;20435;-48
2021/04/10 10:03:52;;;;;;;7.33;5.00;;;11.30;99.50;;;;;;5053236;28;20439;-48
2021/04/10 10:06:23;;;;;;;5.77;4.40;;;11.60;99.90;;;;;;5052612;28;20986;-48
2021/04/10 10:08:50;;;;;;;7.13;4.40;;;11.70;99.70;;;;;;5052809;28;20445;-48
2021/04/10 10:11:17;;;;;;;11.73;4.80;;;11.90;99.40;;;;;;5053020;28;20430;-48
2021/04/10 10:13:45;;;;;;;8.17;4.50;;;11.80;99.10;;;;;;5052951;28;20933;-47
2021/04/10 10:16:12;;;;;;;6.50;4.30;;;12.30;99.00;;;;;;5053208;28;20480;-48
2021/04/10 10:18:41;;;;;;;6.03;4.00;;;12.30;98.50;;;;;;5052309;28;20424;-48
2021/04/10 10:21:10;;;;;;;6.30;4.13;;;12.10;98.00;;;;;;5052718;28;20462;-48
2021/04/10 10:23:39;;;;;;;9.50;4.70;;;12.50;97.80;;;;;;5071394;28;20523;-48
2021/04/10 10:26:08;;;;;;;6.17;4.47;;;12.70;97.50;;;;;;5072067;28;20522;-49
2021/04/10 10:28:36;;;;;;;13.70;4.50;;;13.10;97.30;;;;;;5071328;28;20452;-48
2021/04/10 10:31:07;;;;;;;7.43;4.73;;;12.60;96.60;;;;;;5070088;28;20511;-49
2021/04/10 10:33:34;;;;;;;9.90;5.00;;;12.90;96.40;;;;;;5071177;28;20443;-48
2021/04/10 10:36:01;;;;;;;9.93;5.13;;;12.70;96.30;;;;;;5072017;28;20487;-49
2021/04/10 10:38:32;;;;;;;9.03;4.53;;;12.80;96.20;;;;;;5072045;28;20926;-51
2021/04/10 10:40:59;;;;;;;7.37;4.70;;;12.60;96.20;;;;;;5070257;28;20437;-48
2021/04/10 10:43:27;;;;;;;6.43;4.83;;;12.30;95.80;;;;;;5071183;28;20426;-48
2021/04/10 10:45:54;;;;;;;11.10;5.17;;;12.60;96.00;;;;;;5071751;28;20845;-49
2021/04/10 10:48:24;;;;;;;6.90;4.90;;;12.70;95.60;;;;;;5072078;28;20435;-47
2021/04/10 10:50:52;;;;;;;6.40;4.73;;;12.40;95.20;;;;;;5071511;28;20468;-48
2021/04/10 10:53:21;;;;;;;6.50;4.93;;;12.20;95.30;;;;;;5072477;28;20447;-48
2021/04/10 10:55:55;;;;;;;6.23;4.43;;;12.10;94.80;;;;;;5067364;28;20497;-48
2021/04/10 10:58:23;;;;;;;7.60;4.53;;;12.40;95.30;;;;;;5051139;28;20544;-48
2021/04/10 11:00:49;;;;;;;8.07;4.53;;;12.70;95.30;;;;;;5052017;28;20512;-48
2021/04/10 11:03:19;;;;;;;6.67;4.13;;;12.70;94.80;;;;;;5051737;28;20499;-48
2021/04/10 11:05:47;;;;;;;5.90;4.67;;;13.10;94.80;;;;;;5051441;28;20457;-47
2021/04/10 11:08:14;;;;;;;6.27;4.50;;;13.50;94.30;;;;;;5050981;28;20981;-47
2021/04/10 11:10:42;;;;;;;5.70;4.30;;;13.30;93.80;;;;;;5051055;28;20455;-48
2021/04/10 11:13:11;;;;;;;6.17;4.20;;;13.50;93.50;;;;;;5051148;28;20428;-47
2021/04/10 11:15:38;;;;;;;8.60;4.80;;;13.30;93.50;;;;;;5050714;28;20503;-47
2021/04/10 11:18:05;;;;;;;7.10;4.37;;;13.60;93.60;;;;;;5050660;28;20486;-48
2021/04/10 11:20:34;;;;;;;6.47;4.23;;;13.10;92.60;;;;;;5051642;28;20933;-47
2021/04/10 11:23:05;;;;;;;7.63;4.83;;;12.80;92.80;;;;;;5063096;28;20454;-48
2021/04/10 11:25:48;;;;;;;7.90;4.47;;;12.70;92.40;;;;;;5072453;28;20487;-47
2021/04/10 11:28:28;;;;;;;7.27;4.00;;;12.20;92.70;;;;;;5071735;28;20435;-48
2021/04/10 11:31:05;;;;;;;5.80;4.30;;;12.40;93.20;;;;;;5070130;28;20443;-48
2021/04/10 11:33:33;;;;;;;6.47;4.70;;;11.90;93.50;;;;;;5070408;28;20996;-48
2021/04/10 11:36:00;;;;;;;9.30;4.70;;;11.60;93.40;;;;;;5071438;28;20905;-47
2021/04/10 11:38:26;;;;;;;7.10;4.60;;;11.70;93.80;;;;;;5071013;28;20445;-47
2021/04/10 11:40:53;;;;;;;8.57;6.20;;;11.60;94.00;;;;;;5070796;28;20875;-48
2021/04/10 11:43:20;;;;;;;8.13;5.33;;;12.10;94.40;;;;;;5069914;28;20430;-47
2021/04/10 11:45:49;;;;;;;6.47;3.80;;;12.30;94.30;;;;;;5070430;28;21027;-48
2021/04/10 11:48:17;;;;;;;14.53;5.97;;;12.10;94.10;;;;;;5070351;28;20939;-50
2021/04/10 11:50:53;;;;;;;5.33;4.17;;;12.10;94.00;;;;;;5070443;28;20441;-50
2021/04/10 11:53:26;;;;;;;5.80;4.20;;;12.20;94.10;;;;;;5073290;28;20425;-50
2021/04/10 11:55:55;;;;;;;9.30;3.80;;;12.30;94.10;;;;;;5076084;28;20481;-49
2021/04/10 11:58:29;;;;;;;6.63;4.87;;;12.00;93.80;;;;;;5074752;28;20436;-50
2021/04/10 12:01:04;;;;;;;8.20;4.63;;;12.20;93.90;;;;;;5072370;28;20504;-50
2021/04/10 12:03:30;;;;;;;8.90;4.50;;;12.30;94.10;;;;;;5073926;28;20520;-51
2021/04/10 12:05:56;;;;;;;6.10;4.20;;;12.00;93.90;;;;;;5073906;28;20525;-49
2021/04/10 12:08:25;;;;;;;6.53;4.00;;;12.00;94.20;;;;;;5074031;28;20423;-49
2021/04/10 12:10:54;;;;;;;5.77;4.10;;;12.30;94.20;;;;;;5074553;28;20432;-49
2021/04/10 12:13:22;;;;;;;7.37;4.20;;;12.30;94.20;;;;;;5073198;28;20436;-50
2021/04/10 12:15:53;;;;;;;6.70;4.00;;;12.50;93.90;;;;;;5074080;28;20539;-50
2021/04/10 12:18:22;;;;;;;12.60;9.53;;;12.80;93.90;;;;;;5074616;28;20459;-49
2021/04/10 12:20:49;;;;;;;6.37;4.30;;;12.90;93.40;;;;;;5067541;28;20440;-49
2021/04/10 12:23:16;;;;;;;8.33;4.07;;;12.80;93.20;;;;;;5073207;28;20494;-50
2021/04/10 12:25:43;;;;;;;6.17;4.33;;;13.00;92.80;;;;;;5073012;28;20452;-49
2021/04/10 12:28:11;;;;;;;8.77;4.50;;;12.90;92.60;;;;;;5073962;28;20471;-49
2021/04/10 12:30:38;;;;;;;8.63;4.00;;;12.90;92.50;;;;;;5072278;28;20482;-49
2021/04/10 12:33:04;;;;;;;5.90;4.03;;;12.80;92.20;;;;;;5071695;28;20450;-50
2021/04/10 12:35:31;;;;;;;7.77;4.23;;;12.50;92.50;;;;;;5073591;28;20442;-51
2021/04/10 12:37:57;;;;;;;7.00;4.80;;;12.50;92.90;;;;;;5073685;28;20479;-51
2021/04/10 12:40:24;;;;;;;6.93;4.37;;;12.40;92.80;;;;;;5073692;28;20439;-49
2021/04/10 12:42:51;;;;;;;6.57;4.07;;;12.60;92.80;;;;;;5072559;28;20535;-50
2021/04/10 12:45:19;;;;;;;4.53;3.70;;;12.70;92.80;;;;;;5073388;28;20438;-49
2021/04/10 12:47:47;;;;;;;8.07;4.10;;;12.60;92.90;;;;;;5073447;28;20438;-50
2021/04/10 12:50:16;;;;;;;9.40;5.40;;;12.80;92.60;;;;;;5071463;28;20498;-49
2021/04/10 12:52:43;;;;;;;7.43;4.93;;;12.60;92.70;;;;;;5072020;28;20427;-49
2021/04/10 12:55:11;;;;;;;7.50;4.00;;;12.10;92.40;;;;;;5074795;28;20450;-49
2021/04/10 12:57:37;;;;;;;5.40;4.10;;;12.40;92.90;;;;;;5073576;28;20474;-49
2021/04/10 13:00:05;;;;;;;7.20;5.33;;;12.40;93.00;;;;;;5071292;28;20448;-49